createdAt,value
2023-02-24T00:01:23.973Z,0.63
2023-02-24T00:03:21.894Z,0.63
2023-02-24T00:05:21.065Z,0.63
2023-02-24T00:07:20.369Z,0.63
2023-02-24T00:09:20.816Z,0.63
2023-02-24T00:11:20.940Z,0.63
2023-02-24T00:13:21.057Z,0.63
2023-02-24T00:15:20.426Z,0.63
2023-02-24T00:17:22.001Z,0.63
2023-02-24T00:19:20.418Z,0.63
2023-02-24T00:21:21.275Z,0.63
2023-02-24T00:23:20.628Z,0.63
2023-02-24T00:25:21.222Z,0.63
2023-02-24T00:27:20.355Z,0.63
2023-02-24T00:29:20.785Z,0.63
2023-02-24T00:31:21.087Z,0.63
2023-02-24T00:33:22.559Z,0.63
2023-02-24T00:35:20.277Z,0.63
2023-02-24T00:37:20.812Z,0.63
2023-02-24T00:39:21.314Z,0.63
2023-02-24T00:41:21.101Z,0.63
2023-02-24T00:43:21.054Z,0.63
2023-02-24T00:45:20.611Z,0.63
2023-02-24T00:47:21.649Z,0.63
2023-02-24T00:49:20.678Z,0.63
2023-02-24T00:51:20.360Z,0.63
2023-02-24T00:53:20.752Z,0.63
2023-02-24T00:55:20.427Z,0.63
2023-02-24T00:57:20.650Z,0.63
2023-02-24T00:59:20.921Z,0.63
2023-02-24T01:01:24.190Z,0.63
2023-02-24T01:03:20.868Z,0.63
2023-02-24T01:05:20.356Z,0.63
2023-02-24T01:07:20.737Z,0.63
2023-02-24T01:09:20.558Z,0.63
2023-02-24T01:11:21.292Z,0.63
2023-02-24T01:13:20.514Z,0.63
2023-02-24T01:15:20.790Z,0.63
2023-02-24T01:17:20.774Z,0.63
2023-02-24T01:19:21.088Z,0.63
2023-02-24T01:21:20.708Z,0.63
2023-02-24T01:23:20.967Z,0.63
2023-02-24T01:25:20.761Z,0.63
2023-02-24T01:27:20.860Z,0.63
2023-02-24T01:29:20.331Z,0.63
2023-02-24T01:31:21.678Z,0.63
2023-02-24T01:33:23.236Z,0.63
2023-02-24T01:35:20.941Z,0.63
2023-02-24T01:37:20.345Z,0.63
2023-02-24T01:39:20.922Z,0.63
2023-02-24T01:41:20.593Z,0.63
2023-02-24T01:43:20.899Z,0.63
2023-02-24T01:45:20.407Z,0.63
2023-02-24T01:47:21.482Z,0.63
2023-02-24T01:49:20.317Z,0.63
2023-02-24T01:51:21.331Z,0.63
2023-02-24T01:53:20.294Z,0.63
2023-02-24T01:55:20.844Z,0.63
2023-02-24T01:57:20.286Z,0.63
2023-02-24T01:59:20.973Z,0.63
2023-02-24T02:01:24.549Z,0.63
2023-02-24T02:03:21.939Z,0.63
2023-02-24T02:05:21.124Z,0.63
2023-02-24T02:07:20.364Z,0.63
2023-02-24T02:09:21.050Z,0.63
2023-02-24T02:11:20.948Z,0.63
2023-02-24T02:13:20.946Z,0.63
2023-02-24T02:15:20.864Z,0.63
2023-02-24T02:17:21.531Z,0.63
2023-02-24T02:19:20.608Z,0.63
2023-02-24T02:21:21.393Z,0.63
2023-02-24T02:23:20.672Z,0.63
2023-02-24T02:25:20.478Z,0.63
2023-02-24T02:27:21.161Z,0.63
2023-02-24T02:29:20.226Z,0.63
2023-02-24T02:31:21.909Z,0.63
2023-02-24T02:33:21.735Z,0.63
2023-02-24T02:35:20.777Z,0.63
2023-02-24T02:37:20.300Z,0.63
2023-02-24T02:39:20.995Z,0.63
2023-02-24T02:41:20.978Z,0.63
2023-02-24T02:43:20.852Z,0.63
2023-02-24T02:45:20.379Z,0.63
2023-02-24T02:47:21.231Z,0.63
2023-02-24T02:49:20.483Z,0.63
2023-02-24T02:51:21.371Z,0.63
2023-02-24T02:53:20.601Z,0.63
2023-02-24T02:55:20.307Z,0.63
2023-02-24T02:57:20.699Z,0.63
2023-02-24T02:59:20.246Z,0.63
2023-02-24T03:01:24.442Z,0.63
2023-02-24T03:03:20.824Z,0.63
2023-02-24T03:05:20.741Z,0.63
2023-02-24T03:07:20.720Z,0.63
2023-02-24T03:09:20.424Z,0.63
2023-02-24T03:11:20.695Z,0.63
2023-02-24T03:13:20.807Z,0.63
2023-02-24T03:15:20.336Z,0.63
2023-02-24T03:17:21.433Z,0.63
2023-02-24T03:19:20.332Z,0.63
2023-02-24T03:21:21.161Z,0.63
2023-02-24T03:23:20.412Z,0.63
2023-02-24T03:25:21.062Z,0.63
2023-02-24T03:27:20.499Z,0.63
2023-02-24T03:29:20.952Z,0.63
2023-02-24T03:31:21.475Z,0.63
2023-02-24T03:33:22.085Z,0.63
2023-02-24T03:35:20.461Z,0.63
2023-02-24T03:37:20.957Z,0.63
2023-02-24T03:39:20.581Z,0.63
2023-02-24T03:41:21.875Z,0.63
2023-02-24T03:43:20.543Z,0.63
2023-02-24T03:45:21.187Z,0.63
2023-02-24T03:47:21.056Z,0.63
2023-02-24T03:49:20.242Z,0.63
2023-02-24T03:51:21.227Z,0.63
2023-02-24T03:53:20.627Z,0.63
2023-02-24T03:55:21.184Z,0.63
2023-02-24T03:57:20.506Z,0.63
2023-02-24T03:59:20.183Z,0.63
2023-02-24T04:01:23.866Z,0.63
2023-02-24T04:03:21.178Z,0.63
2023-02-24T04:05:20.536Z,0.63
2023-02-24T04:07:20.721Z,0.63
2023-02-24T04:09:20.470Z,0.63
2023-02-24T04:11:21.391Z,0.63
2023-02-24T04:13:21.103Z,0.63
2023-02-24T04:15:20.891Z,0.63
2023-02-24T04:17:20.641Z,0.63
2023-02-24T04:19:20.957Z,0.63
2023-02-24T04:21:20.869Z,0.63
2023-02-24T04:23:21.232Z,0.63
2023-02-24T04:25:20.641Z,0.63
2023-02-24T04:27:21.673Z,0.63
2023-02-24T04:29:20.528Z,0.63
2023-02-24T04:31:21.631Z,0.63
2023-02-24T04:33:21.965Z,0.63
2023-02-24T04:35:20.272Z,0.63
2023-02-24T04:37:20.886Z,0.63
2023-02-24T04:39:20.510Z,0.63
2023-02-24T04:41:21.845Z,0.63
2023-02-24T04:43:20.773Z,0.63
2023-02-24T04:45:21.186Z,0.63
2023-02-24T04:47:21.003Z,0.63
2023-02-24T04:49:21.135Z,0.63
2023-02-24T04:51:21.177Z,0.63
2023-02-24T04:53:21.205Z,0.63
2023-02-24T04:55:20.835Z,0.63
2023-02-24T04:57:21.861Z,0.63
2023-02-24T04:59:20.509Z,0.63
2023-02-24T05:01:24.747Z,0.63
2023-02-24T05:03:20.692Z,0.63
2023-02-24T05:05:21.693Z,0.63
2023-02-24T05:07:20.171Z,0.63
2023-02-24T05:09:20.911Z,0.63
2023-02-24T05:11:21.290Z,0.63
2023-02-24T05:13:20.515Z,0.63
2023-02-24T05:15:20.658Z,0.63
2023-02-24T05:17:20.768Z,0.63
2023-02-24T05:19:20.842Z,0.63
2023-02-24T05:21:20.615Z,0.63
2023-02-24T05:23:20.743Z,0.63
2023-02-24T05:25:20.498Z,0.63
2023-02-24T05:27:20.946Z,0.63
2023-02-24T05:29:20.320Z,0.63
2023-02-24T05:31:22.242Z,0.63
2023-02-24T05:33:21.255Z,0.63
2023-02-24T05:35:20.808Z,0.63
2023-02-24T05:37:20.519Z,0.63
2023-02-24T05:39:20.950Z,0.63
2023-02-24T05:41:20.662Z,0.63
2023-02-24T05:43:20.755Z,0.63
2023-02-24T05:45:20.449Z,0.63
2023-02-24T05:47:21.772Z,0.63
2023-02-24T05:49:20.580Z,0.63
2023-02-24T05:51:21.197Z,0.63
2023-02-24T05:53:20.388Z,0.63
2023-02-24T05:55:20.963Z,0.63
2023-02-24T05:57:20.532Z,0.63
2023-02-24T05:59:21.007Z,0.63
2023-02-24T06:01:25.240Z,0.63
2023-02-24T06:03:21.539Z,0.63
2023-02-24T06:05:20.954Z,0.63
2023-02-24T06:07:20.920Z,0.63
2023-02-24T06:09:20.524Z,0.63
2023-02-24T06:11:21.825Z,0.63
2023-02-24T06:13:20.972Z,0.63
2023-02-24T06:15:21.198Z,0.63
2023-02-24T06:17:21.100Z,0.63
2023-02-24T06:19:21.450Z,0.63
2023-02-24T06:21:21.336Z,0.63
2023-02-24T06:23:21.135Z,0.63
2023-02-24T06:25:20.976Z,0.63
2023-02-24T06:27:20.668Z,0.63
2023-02-24T06:29:21.176Z,0.63
2023-02-24T06:31:21.133Z,0.63
2023-02-24T06:33:22.271Z,0.63
2023-02-24T06:35:20.525Z,0.63
2023-02-24T06:37:21.107Z,0.63
2023-02-24T06:39:20.611Z,0.63
2023-02-24T06:41:21.302Z,0.63
2023-02-24T06:43:20.592Z,0.63
2023-02-24T06:45:21.157Z,0.63
2023-02-24T06:47:20.973Z,0.63
2023-02-24T06:49:20.181Z,0.63
2023-02-24T06:51:21.197Z,0.63
2023-02-24T06:53:20.352Z,0.63
2023-02-24T06:55:21.116Z,0.63
2023-02-24T06:57:20.144Z,0.63
2023-02-24T06:59:20.873Z,0.63
2023-02-24T07:01:20.865Z,0.63
2023-02-24T07:03:21.156Z,0.63
2023-02-24T07:05:24.286Z,0.63
2023-02-24T07:07:20.791Z,0.63
2023-02-24T07:09:20.369Z,0.63
2023-02-24T07:11:21.244Z,0.63
2023-02-24T07:13:20.441Z,0.63
2023-02-24T07:15:20.812Z,0.63
2023-02-24T07:17:21.353Z,0.63
2023-02-24T07:19:20.419Z,0.63
2023-02-24T07:21:21.233Z,0.63
2023-02-24T07:23:20.563Z,0.63
2023-02-24T07:25:20.840Z,0.63
2023-02-24T07:27:20.362Z,0.63
2023-02-24T07:29:21.101Z,0.63
2023-02-24T07:31:21.655Z,0.63
2023-02-24T07:33:21.596Z,0.63
2023-02-24T07:35:20.608Z,0.63
2023-02-24T07:37:21.203Z,0.63
2023-02-24T07:39:20.600Z,0.63
2023-02-24T07:41:21.489Z,0.63
2023-02-24T07:43:20.742Z,0.63
2023-02-24T07:45:21.165Z,0.63
2023-02-24T07:47:21.013Z,0.63
2023-02-24T07:49:21.028Z,0.63
2023-02-24T07:51:20.651Z,0.63
2023-02-24T07:53:21.054Z,0.63
2023-02-24T07:55:20.382Z,0.63
2023-02-24T07:57:20.912Z,0.63
2023-02-24T07:59:20.458Z,0.63
2023-02-24T08:01:23.932Z,0.63
2023-02-24T08:03:20.648Z,0.63
2023-02-24T08:05:20.802Z,0.63
2023-02-24T08:07:22.069Z,0.63
2023-02-24T08:09:20.784Z,0.63
2023-02-24T08:11:21.464Z,0.63
2023-02-24T08:13:20.634Z,0.63
2023-02-24T08:15:21.153Z,0.63
2023-02-24T08:17:20.623Z,0.63
2023-02-24T08:19:21.199Z,0.63
2023-02-24T08:21:21.683Z,0.63
2023-02-24T08:23:21.241Z,0.63
2023-02-24T08:25:21.881Z,0.63
2023-02-24T08:27:21.322Z,0.63
2023-02-24T08:29:27.657Z,0.63
2023-02-24T08:31:22.449Z,0.63
2023-02-24T08:33:21.682Z,0.63
2023-02-24T08:35:20.463Z,0.63
2023-02-24T08:37:21.710Z,0.63
2023-02-24T08:39:22.933Z,0.63
2023-02-24T08:41:21.637Z,0.63
2023-02-24T08:43:20.675Z,0.63
2023-02-24T08:45:20.742Z,0.63
2023-02-24T08:47:21.911Z,0.63
2023-02-24T08:49:20.821Z,0.63
2023-02-24T08:51:20.701Z,0.63
2023-02-24T08:53:20.824Z,0.63
2023-02-24T08:55:20.100Z,0.63
2023-02-24T08:57:21.118Z,0.63
2023-02-24T08:59:21.659Z,0.63
2023-02-24T09:01:25.135Z,0.63
2023-02-24T09:03:23.941Z,0.63
2023-02-24T09:05:25.580Z,0.63
2023-02-24T09:07:33.502Z,0.63
2023-02-24T09:09:20.897Z,0.63
2023-02-24T09:11:20.827Z,0.63
2023-02-24T09:13:21.456Z,0.63
2023-02-24T09:15:34.662Z,0.63
2023-02-24T09:17:21.453Z,0.63
2023-02-24T09:19:20.611Z,0.63
2023-02-24T09:21:21.623Z,0.63
2023-02-24T09:23:29.610Z,0.63
2023-02-24T09:25:24.445Z,0.63
2023-02-24T09:27:20.575Z,0.63
2023-02-24T09:29:21.704Z,0.63
2023-02-24T09:31:22.315Z,0.63
2023-02-24T09:33:22.546Z,0.63
2023-02-24T09:35:20.803Z,0.63
2023-02-24T09:37:21.257Z,0.63
2023-02-24T09:39:20.684Z,0.63
2023-02-24T09:41:40.496Z,0.63
2023-02-24T09:43:22.430Z,0.63
2023-02-24T09:45:20.472Z,0.63
2023-02-24T09:47:22.057Z,0.63
2023-02-24T09:49:20.492Z,0.63
2023-02-24T09:51:56.726Z,0.63
2023-02-24T09:53:32.344Z,0.63
2023-02-24T09:55:20.506Z,0.63
2023-02-24T09:57:21.229Z,0.63
2023-02-24T09:59:29.556Z,0.63
2023-02-24T10:01:24.250Z,0.63
2023-02-24T10:03:22.275Z,0.63
2023-02-24T10:05:30.959Z,0.63
2023-02-24T10:07:26.336Z,0.63
2023-02-24T10:09:20.377Z,0.63
2023-02-24T10:11:21.398Z,0.63
2023-02-24T10:13:20.547Z,0.63
2023-02-24T10:15:36.468Z,0.63
2023-02-24T10:17:26.056Z,0.63
2023-02-24T10:19:21.042Z,0.63
2023-02-24T10:21:21.271Z,0.63
2023-02-24T10:23:20.899Z,0.63
2023-02-24T10:25:21.568Z,0.63
2023-02-24T10:27:42.356Z,0.63
2023-02-24T10:29:20.615Z,0.63
2023-02-24T10:31:22.784Z,0.63
2023-02-24T10:33:21.845Z,0.63
2023-02-24T10:35:21.399Z,0.63
2023-02-24T10:37:30.714Z,0.63
2023-02-24T10:39:21.030Z,0.63
2023-02-24T10:41:21.045Z,0.63
2023-02-24T10:43:21.315Z,0.63
2023-02-24T10:45:40.276Z,0.63
2023-02-24T10:47:36.481Z,0.63
2023-02-24T10:49:37.369Z,0.63
2023-02-24T10:51:30.666Z,0.63
2023-02-24T10:53:20.262Z,0.63
2023-02-24T10:55:20.795Z,0.63
2023-02-24T10:57:20.744Z,0.63
2023-02-24T10:59:22.132Z,0.63
2023-02-24T11:01:25.255Z,0.63
2023-02-24T11:03:32.520Z,0.63
2023-02-24T11:05:20.917Z,0.63
2023-02-24T11:07:20.342Z,0.63
2023-02-24T11:09:20.860Z,0.63
2023-02-24T11:11:20.846Z,0.63
2023-02-24T11:13:32.146Z,0.63
2023-02-24T11:15:20.229Z,0.63
2023-02-24T11:17:20.880Z,0.63
2023-02-24T11:19:21.207Z,0.63
2023-02-24T11:21:34.559Z,0.63
2023-02-24T11:23:20.910Z,0.63
2023-02-24T11:25:20.561Z,0.63
2023-02-24T11:27:20.935Z,0.63
2023-02-24T11:29:21.165Z,0.63
2023-02-24T11:31:21.638Z,0.63
2023-02-24T11:33:23.884Z,0.63
2023-02-24T11:35:20.856Z,0.63
2023-02-24T11:37:20.919Z,0.63
2023-02-24T11:39:38.001Z,0.63
2023-02-24T11:41:22.036Z,0.63
2023-02-24T11:43:20.608Z,0.63
2023-02-24T11:45:23.226Z,0.63
2023-02-24T11:47:21.003Z,0.63
2023-02-24T11:49:21.270Z,0.63
2023-02-24T11:51:24.127Z,0.63
2023-02-24T11:53:21.117Z,0.63
2023-02-24T11:55:20.886Z,0.63
2023-02-24T11:57:21.309Z,0.63
2023-02-24T11:59:21.206Z,0.63
2023-02-24T12:01:24.437Z,0.63
2023-02-24T12:03:21.741Z,0.63
2023-02-24T12:05:21.302Z,0.63
2023-02-24T12:07:20.470Z,0.63
2023-02-24T12:09:20.867Z,0.63
2023-02-24T12:11:36.051Z,0.63
2023-02-24T12:13:21.430Z,0.63
2023-02-24T12:15:21.069Z,0.63
2023-02-24T12:17:21.370Z,0.21
2023-02-24T12:19:22.039Z,0.21
2023-02-24T12:21:22.703Z,0.21
2023-02-24T12:23:20.510Z,0.56
2023-02-24T12:25:20.936Z,0.56
2023-02-24T12:27:20.501Z,0.56
2023-02-24T12:29:20.923Z,0.84
2023-02-24T12:31:24.860Z,0.84
2023-02-24T12:33:22.218Z,0.84
2023-02-24T12:35:20.329Z,1.1
2023-02-24T12:37:20.869Z,1.1
2023-02-24T12:39:20.608Z,1.1
2023-02-24T12:41:21.543Z,1.23
2023-02-24T12:43:20.550Z,1.23
2023-02-24T12:45:20.925Z,1.23
2023-02-24T12:47:20.743Z,1.42
2023-02-24T12:49:20.980Z,1.42
2023-02-24T12:51:20.589Z,1.42
2023-02-24T12:53:20.434Z,1.43
2023-02-24T12:55:21.262Z,1.43
2023-02-24T12:57:20.443Z,1.43
2023-02-24T12:59:21.602Z,1.72
2023-02-24T13:01:24.913Z,1.72
2023-02-24T13:03:21.415Z,1.72
2023-02-24T13:05:21.797Z,1.76
2023-02-24T13:07:20.792Z,1.76
2023-02-24T13:09:20.646Z,1.76
2023-02-24T13:11:21.233Z,1.76
2023-02-24T13:13:20.255Z,1.76
2023-02-24T13:15:20.755Z,1.76
2023-02-24T13:17:21.043Z,1.83
2023-02-24T13:19:20.976Z,1.83
2023-02-24T13:21:20.649Z,1.83
2023-02-24T13:23:20.901Z,1.84
2023-02-24T13:25:20.695Z,1.84
2023-02-24T13:27:21.028Z,1.84
2023-02-24T13:29:20.241Z,1.89
2023-02-24T13:31:21.480Z,1.89
2023-02-24T13:33:21.333Z,1.89
2023-02-24T13:35:20.739Z,1.83
2023-02-24T13:37:20.336Z,1.83
2023-02-24T13:39:20.872Z,1.83
2023-02-24T13:41:21.162Z,2.16
2023-02-24T13:43:20.820Z,2.16
2023-02-24T13:45:20.539Z,2.16
2023-02-24T13:47:21.117Z,2.22
2023-02-24T13:49:21.820Z,2.22
2023-02-24T13:51:21.271Z,2.22
2023-02-24T13:53:20.447Z,2.19
2023-02-24T13:55:20.915Z,2.19
2023-02-24T13:57:20.381Z,2.19
2023-02-24T13:59:20.645Z,2.03
2023-02-24T14:01:26.963Z,2.03
2023-02-24T14:03:21.039Z,2.03
2023-02-24T14:05:20.266Z,1.93
2023-02-24T14:07:20.956Z,1.93
2023-02-24T14:09:21.227Z,1.93
2023-02-24T14:11:21.275Z,1.95
2023-02-24T14:13:21.112Z,1.95
2023-02-24T14:15:20.443Z,1.96
2023-02-24T14:17:22.558Z,1.97
2023-02-24T14:19:20.398Z,1.97
2023-02-24T14:21:20.864Z,1.97
2023-02-24T14:23:21.027Z,1.98
2023-02-24T14:25:21.044Z,1.98
2023-02-24T14:27:20.501Z,1.98
2023-02-24T14:29:20.872Z,1.99
2023-02-24T14:31:21.708Z,1.99
2023-02-24T14:33:21.843Z,1.99
2023-02-24T14:35:21.238Z,2.01
2023-02-24T14:37:21.524Z,2.01
2023-02-24T14:39:21.612Z,2.01
2023-02-24T14:41:20.734Z,2.03
2023-02-24T14:43:20.017Z,2.03
2023-02-24T14:45:21.198Z,2.03
2023-02-24T14:47:22.352Z,2
2023-02-24T14:49:20.622Z,2
2023-02-24T14:51:21.367Z,2.03
2023-02-24T14:53:21.000Z,2.03
2023-02-24T14:55:21.098Z,2.03
2023-02-24T14:57:21.253Z,2.03
2023-02-24T14:59:20.873Z,2.03
2023-02-24T15:01:23.789Z,2.03
2023-02-24T15:03:20.835Z,2.03
2023-02-24T15:05:20.884Z,2.02
2023-02-24T15:07:21.291Z,2.02
2023-02-24T15:09:21.252Z,2.02
2023-02-24T15:11:20.217Z,2.01
2023-02-24T15:13:23.403Z,2.01
2023-02-24T15:15:20.481Z,2.01
2023-02-24T15:17:22.113Z,2.03
2023-02-24T15:19:23.803Z,2.03
2023-02-24T15:21:20.845Z,2.03
2023-02-24T15:23:20.493Z,2.04
2023-02-24T15:25:24.100Z,2.04
2023-02-24T15:27:20.349Z,2.05
2023-02-24T15:29:21.021Z,2.05
2023-02-24T15:31:23.249Z,2.05
2023-02-24T15:33:22.368Z,2.05
2023-02-24T15:35:20.519Z,2.12
2023-02-24T15:37:21.409Z,2.12
2023-02-24T15:39:20.734Z,2.12
2023-02-24T15:41:21.129Z,2.06
2023-02-24T15:43:20.780Z,2.06
2023-02-24T15:45:21.261Z,2.06
2023-02-24T15:47:21.692Z,2.05
2023-02-24T15:49:20.851Z,2.05
2023-02-24T15:51:20.753Z,2.05
2023-02-24T15:53:22.011Z,2.1
2023-02-24T15:55:20.454Z,2.1
2023-02-24T15:57:21.193Z,2.1
2023-02-24T15:59:20.491Z,2.08
2023-02-24T16:01:24.846Z,2.08
2023-02-24T16:03:20.350Z,2.08
2023-02-24T16:05:21.140Z,2.07
2023-02-24T16:07:20.709Z,2.07
2023-02-24T16:09:20.869Z,2.07
2023-02-24T16:11:20.385Z,2.16
2023-02-24T16:13:20.717Z,2.16
2023-02-24T16:15:20.386Z,2.16
2023-02-24T16:17:21.973Z,2.23
2023-02-24T16:19:21.143Z,2.23
2023-02-24T16:21:21.234Z,2.23
2023-02-24T16:23:20.317Z,2.5
2023-02-24T16:25:20.686Z,2.5
2023-02-24T16:27:21.280Z,2.5
2023-02-24T16:29:20.382Z,2.58
2023-02-24T16:31:22.136Z,2.58
2023-02-24T16:33:22.515Z,2.58
2023-02-24T16:35:21.200Z,2.28
2023-02-24T16:37:21.080Z,2.28
2023-02-24T16:39:20.995Z,2.28
2023-02-24T16:41:20.635Z,2.2
2023-02-24T16:43:20.937Z,2.2
2023-02-24T16:45:20.492Z,2.2
2023-02-24T16:47:21.795Z,2.31
2023-02-24T16:49:21.576Z,2.31
2023-02-24T16:51:20.724Z,2.31
2023-02-24T16:53:20.510Z,2.29
2023-02-24T16:55:20.726Z,2.29
2023-02-24T16:57:20.757Z,2.29
2023-02-24T16:59:20.904Z,2.35
2023-02-24T17:01:24.534Z,2.35
2023-02-24T17:03:20.665Z,2.35
2023-02-24T17:05:21.716Z,2.43
2023-02-24T17:07:22.294Z,2.43
2023-02-24T17:09:20.321Z,2.43
2023-02-24T17:11:20.981Z,2.46
2023-02-24T17:13:20.876Z,2.46
2023-02-24T17:15:21.130Z,2.46
2023-02-24T17:17:21.422Z,2.37
2023-02-24T17:19:20.754Z,2.37
2023-02-24T17:21:20.434Z,2.37
2023-02-24T17:23:22.410Z,2.46
2023-02-24T17:25:20.363Z,2.46
2023-02-24T17:27:21.339Z,2.46
2023-02-24T17:29:20.774Z,2.46
2023-02-24T17:31:22.181Z,2.59
2023-02-24T17:33:21.506Z,2.59
2023-02-24T17:35:20.773Z,2.56
2023-02-24T17:37:21.190Z,2.56
2023-02-24T17:39:20.508Z,2.56
2023-02-24T17:41:22.963Z,2.56
2023-02-24T17:43:20.652Z,2.56
2023-02-24T17:45:21.226Z,2.56
2023-02-24T17:47:21.809Z,2.56
2023-02-24T17:49:20.262Z,2.56
2023-02-24T17:51:21.512Z,2.56
2023-02-24T17:53:24.871Z,2.56
2023-02-24T17:55:20.723Z,2.56
2023-02-24T17:57:22.637Z,2.56
2023-02-24T17:59:20.885Z,2.56
2023-02-24T18:01:23.793Z,2.56
2023-02-24T18:03:25.218Z,2.56
2023-02-24T18:05:20.496Z,2.56
2023-02-24T18:07:21.327Z,2.56
2023-02-24T18:09:22.292Z,2.56
2023-02-24T18:11:20.882Z,2.56
2023-02-24T18:13:20.593Z,2.56
2023-02-24T18:15:32.148Z,2.56
2023-02-24T18:17:22.276Z,2.56
2023-02-24T18:19:20.721Z,2.56
2023-02-24T18:21:21.180Z,2.56
2023-02-24T18:23:20.488Z,2.56
2023-02-24T18:25:20.795Z,2.56
2023-02-24T18:27:21.096Z,2.56
2023-02-24T18:29:20.722Z,2.56
2023-02-24T18:31:21.940Z,2.56
2023-02-24T18:33:23.228Z,2.56
2023-02-24T18:35:20.394Z,2.56
2023-02-24T18:37:20.818Z,2.56
2023-02-24T18:39:20.219Z,2.56
2023-02-24T18:41:20.892Z,2.56
2023-02-24T18:43:21.217Z,0.7
2023-02-24T18:45:20.424Z,0.7
2023-02-24T18:47:22.204Z,0.7
2023-02-24T18:49:20.389Z,0.7
2023-02-24T18:51:21.027Z,1.28
2023-02-24T18:53:20.267Z,1.28
2023-02-24T18:55:20.716Z,1.28
2023-02-24T18:57:20.872Z,1.28
2023-02-24T18:59:20.878Z,1.28
2023-02-24T19:01:24.456Z,1.28
2023-02-24T19:03:21.586Z,1.28
2023-02-24T19:05:20.416Z,1.28
2023-02-24T19:07:21.337Z,1.28
2023-02-24T19:09:20.366Z,1.28
2023-02-24T19:11:20.841Z,1.28
2023-02-24T19:13:21.408Z,1.28
2023-02-24T19:15:20.651Z,1.28
2023-02-24T19:17:22.224Z,1.28
2023-02-24T19:19:20.445Z,1.28
2023-02-24T19:21:21.027Z,1.28
2023-02-24T19:23:20.374Z,1.28
2023-02-24T19:25:20.883Z,1.28
2023-02-24T19:27:21.250Z,1.28
2023-02-24T19:29:21.116Z,1.28
2023-02-24T19:31:21.115Z,1.28
2023-02-24T19:33:21.814Z,1.28
2023-02-24T19:35:20.761Z,1.28
2023-02-24T19:37:21.115Z,1.28
2023-02-24T19:39:20.671Z,1.28
2023-02-24T19:41:20.351Z,1.28
2023-02-24T19:43:20.944Z,1.28
2023-02-24T19:45:20.504Z,1.28
2023-02-24T19:47:21.745Z,1.28
2023-02-24T19:49:20.801Z,1.28
2023-02-24T19:51:20.404Z,1.28
2023-02-24T19:53:20.815Z,1.28
2023-02-24T19:55:20.372Z,1.28
2023-02-24T19:57:21.715Z,1.28
2023-02-24T19:59:20.280Z,1.28
2023-02-24T20:01:23.894Z,1.28
2023-02-24T20:03:20.908Z,1.28
2023-02-24T20:05:21.011Z,1.28
2023-02-24T20:07:21.299Z,1.28
2023-02-24T20:09:20.428Z,1.28
2023-02-24T20:11:21.052Z,1.28
2023-02-24T20:13:20.789Z,1.28
2023-02-24T20:15:21.136Z,1.28
2023-02-24T20:17:21.548Z,1.28
2023-02-24T20:19:20.908Z,1.28
2023-02-24T20:21:20.480Z,1.28
2023-02-24T20:23:21.124Z,1.28
2023-02-24T20:25:21.793Z,1.28
2023-02-24T20:27:21.449Z,1.28
2023-02-24T20:29:20.546Z,1.28
2023-02-24T20:31:21.502Z,1.28
2023-02-24T20:33:21.494Z,1.28
2023-02-24T20:35:21.293Z,1.28
2023-02-24T20:37:21.326Z,1.28
2023-02-24T20:39:20.883Z,1.28
2023-02-24T20:41:22.875Z,1.28
2023-02-24T20:43:20.728Z,1.28
2023-02-24T20:45:20.254Z,1.28
2023-02-24T20:47:22.003Z,1.28
2023-02-24T20:49:20.362Z,1.28
2023-02-24T20:51:20.779Z,1.28
2023-02-24T20:53:20.175Z,1.28
2023-02-24T20:55:20.692Z,1.28
2023-02-24T20:57:26.800Z,1.28
2023-02-24T20:59:20.798Z,1.28
2023-02-24T21:01:25.847Z,1.28
2023-02-24T21:03:20.694Z,1.28
2023-02-24T21:05:21.542Z,1.28
2023-02-24T21:07:28.879Z,1.28
2023-02-24T21:09:20.861Z,1.28
2023-02-24T21:11:22.486Z,1.28
2023-02-24T21:13:20.925Z,1.28
2023-02-24T21:15:20.337Z,1.28
2023-02-24T21:17:21.572Z,1.28
2023-02-24T21:19:20.360Z,1.28
2023-02-24T21:21:20.793Z,1.28
2023-02-24T21:23:20.152Z,1.28
2023-02-24T21:25:20.768Z,1.28
2023-02-24T21:27:20.699Z,1.28
2023-02-24T21:29:20.897Z,1.28
2023-02-24T21:31:21.495Z,1.28
2023-02-24T21:33:21.376Z,1.28
2023-02-24T21:35:21.216Z,1.28
2023-02-24T21:37:21.143Z,1.28
2023-02-24T21:39:21.045Z,1.28
2023-02-24T21:41:20.827Z,1.28
2023-02-24T21:43:20.429Z,1.28
2023-02-24T21:45:20.875Z,1.28
2023-02-24T21:47:21.641Z,1.28
2023-02-24T21:49:20.856Z,1.28
2023-02-24T21:51:20.365Z,1.28
2023-02-24T21:53:20.733Z,1.28
2023-02-24T21:55:20.389Z,1.28
2023-02-24T21:57:21.208Z,1.28
2023-02-24T21:59:20.414Z,1.28
2023-02-24T22:01:24.552Z,1.28
2023-02-24T22:03:21.558Z,1.28
2023-02-24T22:05:20.593Z,1.28
2023-02-24T22:07:20.632Z,1.28
2023-02-24T22:09:20.845Z,1.28
2023-02-24T22:11:20.445Z,1.28
2023-02-24T22:13:20.940Z,1.28
2023-02-24T22:15:20.414Z,1.28
2023-02-24T22:17:22.114Z,1.28
2023-02-24T22:19:20.629Z,1.28
2023-02-24T22:21:21.110Z,1.28
2023-02-24T22:23:20.587Z,1.28
2023-02-24T22:25:21.003Z,1.28
2023-02-24T22:27:20.991Z,1.28
2023-02-24T22:29:21.191Z,1.28
2023-02-24T22:31:21.047Z,1.28
2023-02-24T22:33:21.960Z,1.28
2023-02-24T22:35:20.506Z,1.28
2023-02-24T22:37:21.479Z,1.28
2023-02-24T22:39:20.819Z,1.28
2023-02-24T22:41:21.351Z,1.28
2023-02-24T22:43:20.764Z,1.28
2023-02-24T22:45:20.282Z,1.28
2023-02-24T22:47:21.961Z,1.28
2023-02-24T22:49:23.066Z,1.28
2023-02-24T22:51:20.950Z,1.28
2023-02-24T22:53:20.302Z,1.28
2023-02-24T22:55:20.819Z,1.28
2023-02-24T22:57:21.048Z,1.28
2023-02-24T22:59:20.915Z,1.28
2023-02-24T23:01:22.312Z,1.28
2023-02-24T23:03:20.706Z,1.28
2023-02-24T23:05:20.606Z,1.28
2023-02-24T23:07:22.075Z,1.28
2023-02-24T23:09:20.455Z,1.28
2023-02-24T23:11:21.029Z,1.28
2023-02-24T23:13:20.580Z,1.28
2023-02-24T23:15:21.148Z,1.28
2023-02-24T23:17:21.630Z,1.28
2023-02-24T23:19:21.008Z,1.28
2023-02-24T23:21:20.752Z,1.28
2023-02-24T23:23:20.094Z,1.28
2023-02-24T23:25:20.732Z,1.28
2023-02-24T23:27:21.555Z,1.28
2023-02-24T23:29:20.841Z,1.28
2023-02-24T23:31:20.798Z,1.28
2023-02-24T23:33:21.946Z,1.28
2023-02-24T23:35:20.709Z,1.28
2023-02-24T23:37:20.787Z,1.28
2023-02-24T23:39:20.723Z,1.28
2023-02-24T23:41:34.672Z,1.28
2023-02-24T23:43:21.083Z,1.28
2023-02-24T23:45:20.445Z,1.28
2023-02-24T23:47:21.912Z,1.28
2023-02-24T23:49:20.486Z,1.28
2023-02-24T23:51:21.050Z,1.28
2023-02-24T23:53:20.585Z,1.28
2023-02-24T23:55:20.131Z,1.28
2023-02-24T23:57:21.007Z,1.28
2023-02-24T23:59:20.287Z,1.28
